createdAt,value
2023-04-28T00:00:55.210Z,57.31
2023-04-28T00:01:55.105Z,57.21
2023-04-28T00:02:55.746Z,57.72
2023-04-28T00:03:55.205Z,57.10
2023-04-28T00:04:55.152Z,57.31
2023-04-28T00:05:55.251Z,57.62
2023-04-28T00:06:55.056Z,57.82
2023-04-28T00:07:55.002Z,56.62
2023-04-28T00:08:54.992Z,57.06
2023-04-28T00:09:54.981Z,57.46
2023-04-28T00:10:54.972Z,57.26
2023-04-28T00:11:54.976Z,57.57
2023-04-28T00:12:54.949Z,57.75
2023-04-28T00:13:54.938Z,57.57
2023-04-28T00:14:54.927Z,57.26
2023-04-28T00:15:54.974Z,57.36
2023-04-28T00:16:55.080Z,57.50
2023-04-28T00:17:54.978Z,57.70
2023-04-28T00:18:54.883Z,57.57
2023-04-28T00:19:54.877Z,57.57
2023-04-28T00:20:54.863Z,57.78
2023-04-28T00:21:54.913Z,58.70
2023-04-28T00:22:54.842Z,58.29
2023-04-28T00:23:54.830Z,57.88
2023-04-28T00:24:54.818Z,58.70
2023-04-28T00:25:54.815Z,58.59
2023-04-28T00:26:54.820Z,58.50
2023-04-28T00:27:54.807Z,57.98
2023-04-28T00:28:54.774Z,58.62
2023-04-28T00:29:54.796Z,58.11
2023-04-28T00:30:54.758Z,58.21
2023-04-28T00:31:54.812Z,57.80
2023-04-28T00:32:54.759Z,58.42
2023-04-28T00:33:54.723Z,58.62
2023-04-28T00:34:54.714Z,58.83
2023-04-28T00:35:54.702Z,58.93
2023-04-28T00:36:54.714Z,58.83
2023-04-28T00:37:54.701Z,58.62
2023-04-28T00:38:54.673Z,58.86
2023-04-28T00:39:54.663Z,59.06
2023-04-28T00:40:54.644Z,59.14
2023-04-28T00:41:54.651Z,59.17
2023-04-28T00:42:54.625Z,59.06
2023-04-28T00:43:54.615Z,58.86
2023-04-28T00:44:54.604Z,58.83
2023-04-28T00:45:54.686Z,59.14
2023-04-28T00:46:54.609Z,58.93
2023-04-28T00:47:54.612Z,58.83
2023-04-28T00:48:54.560Z,58.62
2023-04-28T00:49:54.551Z,58.93
2023-04-28T00:50:54.538Z,59.03
2023-04-28T00:51:54.530Z,59.03
2023-04-28T00:52:54.541Z,58.83
2023-04-28T00:53:54.534Z,58.62
2023-04-28T00:54:54.497Z,58.52
2023-04-28T00:55:54.487Z,58.83
2023-04-28T00:56:54.472Z,58.73
2023-04-28T00:57:54.483Z,58.93
2023-04-28T00:58:54.455Z,58.86
2023-04-28T00:59:54.448Z,58.54
2023-04-28T01:00:54.459Z,59.17
2023-04-28T01:01:54.436Z,58.86
2023-04-28T01:02:54.514Z,58.96
2023-04-28T01:03:54.580Z,59.17
2023-04-28T01:04:54.388Z,59.06
2023-04-28T01:05:54.380Z,59.17
2023-04-28T01:06:54.414Z,59.17
2023-04-28T01:07:54.354Z,58.83
2023-04-28T01:08:54.356Z,59.03
2023-04-28T01:09:54.366Z,58.52
2023-04-28T01:10:54.325Z,58.83
2023-04-28T01:11:54.343Z,58.62
2023-04-28T01:12:54.301Z,58.42
2023-04-28T01:13:54.295Z,58.73
2023-04-28T01:14:54.281Z,58.83
2023-04-28T01:15:54.284Z,58.31
2023-04-28T01:16:54.354Z,58.39
2023-04-28T01:17:54.297Z,58.59
2023-04-28T01:18:54.235Z,58.70
2023-04-28T01:19:54.228Z,58.50
2023-04-28T01:20:54.221Z,58.80
2023-04-28T01:21:54.221Z,58.73
2023-04-28T01:22:54.198Z,58.73
2023-04-28T01:23:54.185Z,59.14
2023-04-28T01:24:54.174Z,59.03
2023-04-28T01:25:54.180Z,59.68
2023-04-28T01:26:54.173Z,59.37
2023-04-28T01:27:54.146Z,59.68
2023-04-28T01:28:54.127Z,59.68
2023-04-28T01:29:54.124Z,59.27
2023-04-28T01:30:54.110Z,59.65
2023-04-28T01:31:54.121Z,59.58
2023-04-28T01:32:54.133Z,59.34
2023-04-28T01:33:54.080Z,59.65
2023-04-28T01:34:54.068Z,59.45
2023-04-28T01:35:54.059Z,59.58
2023-04-28T01:36:54.060Z,58.83
2023-04-28T01:37:54.044Z,59.03
2023-04-28T01:38:54.024Z,59.14
2023-04-28T01:39:54.018Z,59.55
2023-04-28T01:40:53.999Z,59.17
2023-04-28T01:41:54.008Z,59.47
2023-04-28T01:42:53.990Z,59.78
2023-04-28T01:43:53.976Z,59.99
2023-04-28T01:44:53.955Z,59.68
2023-04-28T01:45:53.995Z,59.58
2023-04-28T01:46:53.960Z,59.58
2023-04-28T01:47:53.982Z,59.68
2023-04-28T01:48:53.923Z,59.99
2023-04-28T01:49:53.911Z,60.12
2023-04-28T01:50:53.901Z,59.91
2023-04-28T01:51:53.887Z,59.91
2023-04-28T01:52:53.888Z,60.84
2023-04-28T01:53:53.862Z,61.25
2023-04-28T01:54:53.862Z,61.07
2023-04-28T01:55:53.837Z,60.97
2023-04-28T01:56:53.859Z,61.72
2023-04-28T01:57:53.838Z,61.52
2023-04-28T01:58:53.813Z,61.49
2023-04-28T01:59:53.795Z,61.93
2023-04-28T02:00:53.788Z,61.72
2023-04-28T02:01:53.821Z,61.93
2023-04-28T02:02:53.906Z,61.93
2023-04-28T02:03:53.913Z,61.82
2023-04-28T02:04:53.838Z,62.34
2023-04-28T02:05:53.733Z,61.82
2023-04-28T02:06:53.752Z,62.65
2023-04-28T02:07:53.712Z,61.61
2023-04-28T02:08:53.698Z,62.75
2023-04-28T02:09:53.693Z,61.82
2023-04-28T02:10:53.679Z,62.65
2023-04-28T02:11:53.708Z,63.06
2023-04-28T02:12:53.658Z,62.54
2023-04-28T02:13:53.667Z,62.13
2023-04-28T02:14:53.636Z,62.47
2023-04-28T02:15:53.639Z,62.47
2023-04-28T02:16:53.634Z,63.60
2023-04-28T02:17:53.685Z,63.40
2023-04-28T02:18:53.618Z,64.02
2023-04-28T02:19:53.582Z,64.32
2023-04-28T02:20:53.569Z,64.46
2023-04-28T02:21:53.608Z,65.08
2023-04-28T02:22:53.548Z,64.67
2023-04-28T02:23:53.548Z,64.87
2023-04-28T02:24:53.526Z,64.87
2023-04-28T02:25:53.516Z,64.98
2023-04-28T02:26:53.522Z,65.18
2023-04-28T02:27:53.497Z,65.49
2023-04-28T02:28:53.486Z,65.39
2023-04-28T02:29:53.505Z,65.49
2023-04-28T02:30:53.468Z,65.18
2023-04-28T02:31:53.563Z,65.59
2023-04-28T02:32:53.512Z,65.59
2023-04-28T02:33:53.432Z,65.91
2023-04-28T02:34:53.418Z,65.91
2023-04-28T02:35:53.413Z,66.21
2023-04-28T02:36:53.404Z,65.80
2023-04-28T02:37:53.407Z,66.21
2023-04-28T02:38:53.375Z,66.76
2023-04-28T02:39:53.397Z,66.66
2023-04-28T02:40:53.353Z,67.03
2023-04-28T02:41:53.365Z,67.14
2023-04-28T02:42:53.354Z,66.94
2023-04-28T02:43:53.326Z,66.97
2023-04-28T02:44:53.319Z,66.83
2023-04-28T02:45:53.324Z,67.17
2023-04-28T02:46:53.349Z,67.38
2023-04-28T02:47:53.368Z,68.13
2023-04-28T02:48:53.271Z,67.90
2023-04-28T02:49:53.259Z,68.13
2023-04-28T02:50:53.251Z,67.61
2023-04-28T02:51:53.239Z,68.00
2023-04-28T02:52:53.244Z,68.00
2023-04-28T02:53:53.221Z,67.82
2023-04-28T02:54:53.206Z,67.93
2023-04-28T02:55:53.204Z,68.41
2023-04-28T02:56:53.204Z,68.62
2023-04-28T02:57:53.178Z,68.00
2023-04-28T02:58:53.173Z,68.30
2023-04-28T02:59:53.180Z,67.79
2023-04-28T03:00:53.217Z,68.17
2023-04-28T03:01:53.250Z,67.66
2023-04-28T03:02:53.173Z,67.86
2023-04-28T03:03:53.366Z,67.86
2023-04-28T03:04:53.157Z,67.66
2023-04-28T03:05:53.094Z,67.35
2023-04-28T03:06:53.107Z,67.97
2023-04-28T03:07:53.068Z,68.07
2023-04-28T03:08:53.064Z,67.97
2023-04-28T03:09:53.048Z,67.97
2023-04-28T03:10:53.034Z,67.45
2023-04-28T03:11:53.026Z,67.97
2023-04-28T03:12:53.034Z,68.72
2023-04-28T03:13:53.003Z,68.82
2023-04-28T03:14:52.994Z,69.27
2023-04-28T03:15:53.071Z,68.93
2023-04-28T03:16:52.988Z,69.34
2023-04-28T03:17:52.991Z,69.24
2023-04-28T03:18:52.954Z,69.13
2023-04-28T03:19:52.939Z,69.03
2023-04-28T03:20:52.930Z,69.03
2023-04-28T03:21:52.936Z,69.34
2023-04-28T03:22:52.901Z,69.27
2023-04-28T03:23:52.898Z,69.37
2023-04-28T03:24:52.891Z,69.09
2023-04-28T03:25:52.877Z,69.78
2023-04-28T03:26:52.878Z,70.30
2023-04-28T03:27:52.854Z,70.20
2023-04-28T03:28:52.844Z,69.99
2023-04-28T03:29:52.834Z,70.40
2023-04-28T03:30:52.821Z,69.99
2023-04-28T03:31:52.936Z,69.99
2023-04-28T03:32:52.874Z,69.65
2023-04-28T03:33:52.808Z,70.20
2023-04-28T03:34:52.804Z,69.99
2023-04-28T03:35:52.767Z,70.40
2023-04-28T03:36:52.784Z,70.64
2023-04-28T03:37:52.761Z,70.51
2023-04-28T03:38:52.737Z,70.51
2023-04-28T03:39:52.726Z,70.61
2023-04-28T03:40:52.714Z,70.82
2023-04-28T03:41:52.710Z,70.72
2023-04-28T03:42:52.720Z,70.40
2023-04-28T03:43:52.686Z,70.95
2023-04-28T03:44:52.668Z,70.85
2023-04-28T03:45:52.715Z,71.16
2023-04-28T03:46:52.680Z,71.23
2023-04-28T03:47:52.668Z,70.82
2023-04-28T03:48:52.639Z,70.92
2023-04-28T03:49:52.648Z,71.16
2023-04-28T03:50:52.603Z,71.23
2023-04-28T03:51:52.618Z,70.72
2023-04-28T03:52:52.605Z,70.72
2023-04-28T03:53:52.574Z,70.82
2023-04-28T03:54:52.568Z,70.95
2023-04-28T03:55:52.554Z,70.82
2023-04-28T03:56:52.540Z,70.30
2023-04-28T03:57:52.545Z,70.82
2023-04-28T03:58:52.525Z,70.30
2023-04-28T03:59:52.520Z,70.61
2023-04-28T04:00:52.517Z,70.82
2023-04-28T04:01:52.498Z,70.47
2023-04-28T04:02:52.678Z,70.89
2023-04-28T04:03:52.644Z,70.68
2023-04-28T04:04:52.674Z,70.47
2023-04-28T04:05:52.701Z,70.78
2023-04-28T04:06:52.464Z,69.96
2023-04-28T04:07:52.428Z,69.96
2023-04-28T04:08:52.414Z,69.54
2023-04-28T04:09:52.421Z,69.13
2023-04-28T04:10:52.394Z,69.13
2023-04-28T04:11:52.407Z,69.34
2023-04-28T04:12:52.372Z,69.13
2023-04-28T04:13:52.366Z,69.34
2023-04-28T04:14:52.353Z,69.24
2023-04-28T04:15:52.406Z,69.24
2023-04-28T04:16:52.338Z,69.03
2023-04-28T04:17:52.369Z,69.03
2023-04-28T04:18:52.308Z,69.24
2023-04-28T04:19:52.304Z,68.62
2023-04-28T04:20:52.284Z,69.85
2023-04-28T04:21:52.308Z,69.00
2023-04-28T04:22:52.281Z,69.17
2023-04-28T04:23:52.262Z,68.55
2023-04-28T04:24:52.243Z,68.21
2023-04-28T04:25:52.235Z,67.70
2023-04-28T04:26:52.237Z,67.66
2023-04-28T04:27:52.211Z,66.84
2023-04-28T04:28:52.201Z,67.15
2023-04-28T04:29:52.190Z,66.94
2023-04-28T04:30:52.235Z,66.53
2023-04-28T04:31:52.346Z,67.36
2023-04-28T04:32:52.183Z,67.49
2023-04-28T04:33:52.145Z,67.49
2023-04-28T04:34:52.134Z,68.04
2023-04-28T04:35:52.123Z,68.21
2023-04-28T04:36:52.148Z,67.90
2023-04-28T04:37:52.125Z,67.87
2023-04-28T04:38:54.368Z,67.05
2023-04-28T04:39:52.083Z,67.43
2023-04-28T04:40:52.074Z,67.12
2023-04-28T04:41:52.111Z,67.02
2023-04-28T04:42:52.052Z,66.91
2023-04-28T04:43:52.055Z,66.71
2023-04-28T04:44:52.030Z,66.78
2023-04-28T04:45:52.026Z,66.40
2023-04-28T04:46:59.127Z,66.09
2023-04-28T04:47:52.142Z,66.09
2023-04-28T04:48:51.994Z,66.81
2023-04-28T04:49:51.979Z,66.61
2023-04-28T04:50:51.984Z,67.02
2023-04-28T04:51:51.998Z,67.02
2023-04-28T04:52:51.945Z,66.91
2023-04-28T04:53:51.958Z,67.40
2023-04-28T04:54:51.924Z,66.67
2023-04-28T04:55:51.916Z,66.64
2023-04-28T04:56:51.924Z,65.72
2023-04-28T04:57:51.888Z,66.03
2023-04-28T04:58:51.881Z,65.69
2023-04-28T04:59:51.875Z,65.59
2023-04-28T05:00:51.862Z,65.25
2023-04-28T05:01:51.991Z,64.25
2023-04-28T05:02:52.017Z,64.22
2023-04-28T05:03:52.023Z,64.63
2023-04-28T05:04:52.082Z,64.50
2023-04-28T05:05:51.837Z,64.67
2023-04-28T05:06:51.815Z,63.85
2023-04-28T05:07:51.789Z,63.34
2023-04-28T05:08:51.775Z,63.82
2023-04-28T05:09:51.789Z,62.90
2023-04-28T05:10:51.763Z,63.07
2023-04-28T05:11:51.775Z,62.56
2023-04-28T05:12:51.741Z,62.98
2023-04-28T05:13:51.723Z,63.07
2023-04-28T05:14:51.711Z,62.98
2023-04-28T05:15:51.715Z,62.74
2023-04-28T05:16:51.923Z,62.95
2023-04-28T05:17:51.726Z,62.84
2023-04-28T05:18:51.680Z,61.30
2023-04-28T05:19:51.654Z,62.30
2023-04-28T05:20:51.671Z,62.30
2023-04-28T05:21:51.656Z,61.79
2023-04-28T05:22:51.637Z,62.07
2023-04-28T05:23:51.614Z,61.25
2023-04-28T05:24:51.608Z,61.32
2023-04-28T05:25:51.626Z,59.68
2023-04-28T05:26:51.648Z,59.14
2023-04-28T05:27:51.569Z,59.04
2023-04-28T05:28:51.585Z,58.63
2023-04-28T05:29:51.552Z,58.50
2023-04-28T05:30:51.539Z,58.56
2023-04-28T05:31:51.606Z,59.38
2023-04-28T05:32:51.581Z,59.58
2023-04-28T05:33:51.508Z,59.58
2023-04-28T05:34:51.512Z,59.76
2023-04-28T05:35:51.481Z,57.58
2023-04-28T05:36:51.492Z,58.33
2023-04-28T05:37:51.469Z,58.50
2023-04-28T05:38:51.456Z,58.48
2023-04-28T05:39:51.447Z,56.94
2023-04-28T05:40:51.457Z,56.46
2023-04-28T05:41:51.441Z,58.53
2023-04-28T05:42:51.412Z,58.33
2023-04-28T05:43:51.545Z,58.84
2023-04-28T05:44:51.386Z,59.86
2023-04-28T05:45:51.455Z,59.35
2023-04-28T05:46:51.469Z,59.35
2023-04-28T05:47:51.389Z,58.84
2023-04-28T05:48:51.348Z,59.55
2023-04-28T05:49:51.331Z,58.61
2023-04-28T05:50:51.317Z,58.91
2023-04-28T05:51:51.311Z,58.81
2023-04-28T05:52:51.335Z,56.87
2023-04-28T05:53:51.298Z,58.12
2023-04-28T05:54:51.275Z,57.10
2023-04-28T05:55:51.264Z,58.33
2023-04-28T05:56:51.256Z,58.45
2023-04-28T05:57:53.346Z,58.25
2023-04-28T05:58:51.235Z,58.97
2023-04-28T05:59:51.223Z,58.84
2023-04-28T06:00:51.211Z,58.40
2023-04-28T06:01:51.209Z,57.25
2023-04-28T06:02:51.458Z,57.76
2023-04-28T06:03:51.363Z,57.32
2023-04-28T06:04:51.458Z,56.10
2023-04-28T06:05:51.208Z,55.89
2023-04-28T06:06:51.161Z,56.17
2023-04-28T06:07:51.967Z,54.92
2023-04-28T06:08:51.129Z,53.90
2023-04-28T06:09:51.120Z,54.00
2023-04-28T06:10:51.109Z,54.51
2023-04-28T06:11:51.100Z,55.36
2023-04-28T06:12:51.106Z,55.02
2023-04-28T06:13:51.097Z,55.10
2023-04-28T06:14:51.059Z,54.11
2023-04-28T06:15:51.059Z,53.98
2023-04-28T06:16:51.074Z,54.08
2023-04-28T06:17:51.078Z,54.18
2023-04-28T06:18:51.024Z,53.70
2023-04-28T06:19:51.004Z,53.70
2023-04-28T06:20:51.016Z,54.13
2023-04-28T06:21:51.016Z,54.57
2023-04-28T06:22:50.976Z,54.67
2023-04-28T06:23:50.965Z,54.05
2023-04-28T06:24:50.950Z,54.67
2023-04-28T06:25:50.950Z,54.26
2023-04-28T06:26:50.950Z,54.67
2023-04-28T06:27:50.931Z,54.05
2023-04-28T06:28:50.913Z,53.85
2023-04-28T06:29:50.914Z,54.05
2023-04-28T06:30:50.895Z,55.08
2023-04-28T06:31:50.979Z,55.69
2023-04-28T06:32:50.942Z,55.38
2023-04-28T06:33:50.857Z,55.87
2023-04-28T06:34:50.885Z,57.09
2023-04-28T06:35:50.833Z,56.96
2023-04-28T06:36:50.877Z,55.82
2023-04-28T06:37:50.829Z,54.87
2023-04-28T06:38:50.800Z,53.47
2023-04-28T06:39:50.784Z,53.27
2023-04-28T06:40:50.794Z,53.64
2023-04-28T06:41:50.769Z,54.36
2023-04-28T06:42:50.829Z,53.55
2023-04-28T06:43:50.747Z,51.71
2023-04-28T06:44:50.739Z,52.34
2023-04-28T06:45:50.742Z,53.70
2023-04-28T06:46:50.787Z,54.13
2023-04-28T06:47:50.718Z,54.03
2023-04-28T06:48:50.896Z,54.64
2023-04-28T06:49:50.681Z,53.92
2023-04-28T06:50:50.742Z,53.83
2023-04-28T06:51:50.712Z,54.33
2023-04-28T06:52:50.657Z,53.44
2023-04-28T06:53:50.638Z,54.23
2023-04-28T06:54:50.624Z,54.44
2023-04-28T06:55:50.624Z,53.19
2023-04-28T06:56:50.634Z,52.88
2023-04-28T06:57:50.592Z,53.31
2023-04-28T06:58:50.591Z,52.39
2023-04-28T06:59:50.575Z,53.13
2023-04-28T07:00:50.569Z,53.92
2023-04-28T07:01:50.650Z,53.83
2023-04-28T07:02:50.741Z,54.11
2023-04-28T07:03:50.648Z,52.83
2023-04-28T07:04:50.517Z,50.56
2023-04-28T07:05:50.511Z,50.72
2023-04-28T07:06:50.536Z,49.98
2023-04-28T07:07:50.494Z,49.86
2023-04-28T07:08:50.575Z,49.65
2023-04-28T07:09:50.461Z,48.59
2023-04-28T07:10:50.454Z,47.66
2023-04-28T07:11:50.475Z,46.33
2023-04-28T07:12:50.486Z,47.53
2023-04-28T07:13:50.426Z,46.39
2023-04-28T07:14:50.415Z,46.11
2023-04-28T07:15:50.406Z,46.36
2023-04-28T07:16:50.487Z,46.36
2023-04-28T07:17:50.500Z,47.78
2023-04-28T07:18:50.372Z,46.98
2023-04-28T07:19:50.358Z,47.58
2023-04-28T07:20:50.353Z,45.93
2023-04-28T07:21:50.377Z,47.33
2023-04-28T07:22:50.345Z,45.58
2023-04-28T07:23:50.313Z,45.68
2023-04-28T07:24:50.328Z,46.11
2023-04-28T07:25:50.316Z,46.90
2023-04-28T07:26:50.297Z,45.78
2023-04-28T07:27:50.286Z,46.98
2023-04-28T07:28:50.262Z,45.89
2023-04-28T07:29:50.264Z,46.98
2023-04-28T07:30:50.254Z,46.25
2023-04-28T07:31:50.272Z,45.62
2023-04-28T07:32:50.273Z,44.93
2023-04-28T07:33:50.290Z,44.90
2023-04-28T07:34:50.200Z,45.92
2023-04-28T07:35:50.222Z,44.10
2023-04-28T07:36:50.175Z,44.58
2023-04-28T07:37:50.178Z,44.50
2023-04-28T07:38:50.165Z,44.90
2023-04-28T07:39:50.172Z,44.60
2023-04-28T07:41:50.127Z,44.40
2023-04-28T07:42:50.112Z,44.10
2023-04-28T07:43:50.102Z,45.21
2023-04-28T07:44:50.090Z,43.87
2023-04-28T07:45:50.204Z,44.50
2023-04-28T07:46:52.094Z,44.01
2023-04-28T07:47:50.105Z,45.05
2023-04-28T07:48:50.054Z,44.22
2023-04-28T07:49:50.064Z,45.84
2023-04-28T07:50:50.047Z,45.92
2023-04-28T07:51:50.009Z,43.98
2023-04-28T07:52:50.009Z,44.76
2023-04-28T07:53:49.989Z,44.06
2023-04-28T07:54:49.987Z,43.65
2023-04-28T07:55:49.985Z,44.87
2023-04-28T07:56:49.962Z,44.54
2023-04-28T07:57:49.943Z,44.54
2023-04-28T07:58:49.949Z,44.03
2023-04-28T07:59:49.926Z,44.34
2023-04-28T08:00:49.937Z,43.83
2023-04-28T08:01:49.904Z,44.01
2023-04-28T08:02:50.060Z,44.42
2023-04-28T08:03:50.103Z,42.37
2023-04-28T08:04:50.027Z,42.49
2023-04-28T08:05:49.944Z,44.20
2023-04-28T08:06:49.894Z,43.67
2023-04-28T08:07:49.845Z,43.55
2023-04-28T08:08:49.832Z,42.01
2023-04-28T08:09:51.538Z,41.89
2023-04-28T08:10:49.818Z,42.80
2023-04-28T08:11:49.801Z,41.59
2023-04-28T08:12:49.784Z,42.09
2023-04-28T08:13:49.782Z,42.52
2023-04-28T08:14:49.771Z,43.02
2023-04-28T08:15:49.884Z,41.69
2023-04-28T08:16:49.750Z,41.77
2023-04-28T08:17:49.778Z,41.77
2023-04-28T08:18:49.757Z,41.55
2023-04-28T08:19:49.706Z,41.22
2023-04-28T08:20:49.707Z,39.50
2023-04-28T08:21:49.697Z,40.80
2023-04-28T08:22:49.673Z,41.71
2023-04-28T08:23:49.683Z,41.19
2023-04-28T08:24:49.648Z,40.89
2023-04-28T08:25:49.692Z,40.58
2023-04-28T08:26:49.629Z,39.98
2023-04-28T08:27:49.624Z,39.37
2023-04-28T08:28:49.603Z,40.28
2023-04-28T08:29:49.593Z,41.59
2023-04-28T08:30:49.593Z,40.20
2023-04-28T08:31:49.648Z,41.11
2023-04-28T08:32:49.623Z,40.80
2023-04-28T08:33:49.549Z,40.30
2023-04-28T08:34:49.553Z,39.37
2023-04-28T08:35:49.547Z,39.09
2023-04-28T08:36:49.526Z,39.98
2023-04-28T08:37:49.604Z,40.40
2023-04-28T08:38:49.502Z,40.34
2023-04-28T08:39:49.499Z,40.25
2023-04-28T08:40:49.502Z,39.94
2023-04-28T08:41:49.487Z,42.07
2023-04-28T08:42:49.458Z,41.99
2023-04-28T08:43:49.446Z,42.38
2023-04-28T08:44:49.447Z,41.35
2023-04-28T08:45:49.513Z,41.83
2023-04-28T08:46:49.476Z,41.63
2023-04-28T08:47:49.470Z,40.50
2023-04-28T08:48:49.395Z,40.48
2023-04-28T08:49:49.388Z,40.48
2023-04-28T08:50:49.390Z,40.48
2023-04-28T08:51:49.361Z,39.09
2023-04-28T08:52:49.352Z,39.31
2023-04-28T08:54:14.876Z,40.44
2023-04-28T08:54:50.321Z,40.88
2023-04-28T08:55:49.314Z,40.58
2023-04-28T08:56:49.311Z,40.90
2023-04-28T08:57:49.359Z,41.61
2023-04-28T08:58:49.279Z,41.77
2023-04-28T08:59:49.276Z,43.08
2023-04-28T09:00:49.260Z,41.95
2023-04-28T09:01:49.359Z,41.95
2023-04-28T09:02:49.362Z,40.82
2023-04-28T09:03:49.538Z,40.42
2023-04-28T09:04:49.432Z,39.41
2023-04-28T09:05:49.296Z,39.13
2023-04-28T09:06:49.400Z,40.86
2023-04-28T09:07:49.186Z,41.67
2023-04-28T09:08:49.166Z,41.85
2023-04-28T09:09:49.184Z,39.95
2023-04-28T09:10:49.156Z,40.48
2023-04-28T09:11:49.246Z,40.80
2023-04-28T09:12:49.149Z,41.22
2023-04-28T09:13:49.125Z,40.31
2023-04-28T09:14:49.103Z,41.63
2023-04-28T09:15:49.090Z,40.82
2023-04-28T09:16:49.429Z,41.73
2023-04-28T09:17:49.107Z,41.81
2023-04-28T09:18:49.056Z,41.69
2023-04-28T09:19:49.051Z,41.49
2023-04-28T09:20:49.039Z,42.09
2023-04-28T09:21:49.087Z,41.56
2023-04-28T09:22:49.061Z,41.36
2023-04-28T09:23:49.014Z,40.66
2023-04-28T09:24:49.002Z,41.28
2023-04-28T09:25:49.044Z,41.87
2023-04-28T09:26:48.997Z,42.35
2023-04-28T09:27:48.965Z,40.62
2023-04-28T09:28:48.971Z,41.14
2023-04-28T09:29:48.969Z,40.44
2023-04-28T09:30:48.934Z,40.17
2023-04-28T09:31:49.105Z,41.41
2023-04-28T09:32:48.951Z,43.20
2023-04-28T09:33:48.899Z,41.87
2023-04-28T09:34:48.890Z,41.79
2023-04-28T09:35:48.880Z,42.01
2023-04-28T09:36:48.888Z,41.49
2023-04-28T09:37:48.860Z,41.97
2023-04-28T09:38:48.899Z,41.14
2023-04-28T09:39:48.835Z,40.03
2023-04-28T09:40:48.870Z,41.81
2023-04-28T09:41:48.869Z,43.62
2023-04-28T09:42:48.844Z,40.20
2023-04-28T09:43:48.815Z,41.39
2023-04-28T09:44:48.788Z,40.99
2023-04-28T09:45:48.805Z,40.64
2023-04-28T09:46:48.795Z,38.33
2023-04-28T09:47:48.803Z,39.56
2023-04-28T09:48:48.767Z,38.35
2023-04-28T09:49:48.733Z,39.25
2023-04-28T09:50:48.719Z,40.46
2023-04-28T09:51:48.743Z,40.48
2023-04-28T09:52:48.696Z,42.41
2023-04-28T09:53:48.684Z,41.00
2023-04-28T09:54:48.680Z,40.70
2023-04-28T09:55:48.776Z,40.18
2023-04-28T09:56:48.648Z,39.76
2023-04-28T09:57:50.101Z,40.08
2023-04-28T09:58:48.637Z,39.98
2023-04-28T09:59:48.617Z,39.28
2023-04-28T10:00:48.616Z,39.59
2023-04-28T10:01:48.642Z,40.28
2023-04-28T10:02:48.698Z,39.59
2023-04-28T10:03:48.667Z,42.21
2023-04-28T10:04:48.704Z,40.70
2023-04-28T10:05:48.651Z,40.32
2023-04-28T10:06:48.553Z,40.10
2023-04-28T10:07:48.541Z,40.30
2023-04-28T10:08:48.524Z,40.78
2023-04-28T10:09:48.505Z,38.95
2023-04-28T10:10:48.508Z,38.55
2023-04-28T10:11:48.493Z,39.58
2023-04-28T10:12:48.487Z,39.29
2023-04-28T10:13:48.480Z,39.72
2023-04-28T10:14:48.447Z,41.05
2023-04-28T10:15:49.505Z,40.32
2023-04-28T10:16:48.430Z,40.50
2023-04-28T10:17:48.449Z,40.60
2023-04-28T10:18:48.419Z,39.56
2023-04-28T10:19:48.401Z,39.45
2023-04-28T10:20:48.417Z,40.26
2023-04-28T10:21:49.418Z,38.43
2023-04-28T10:22:48.364Z,38.45
2023-04-28T10:23:48.366Z,40.08
2023-04-28T10:24:48.336Z,40.28
2023-04-28T10:25:48.392Z,40.40
2023-04-28T10:26:48.375Z,40.44
2023-04-28T10:27:48.305Z,40.05
2023-04-28T10:28:48.300Z,40.98
2023-04-28T10:29:48.303Z,41.49
2023-04-28T10:30:48.288Z,41.69
2023-04-28T10:31:48.360Z,42.82
2023-04-28T10:32:48.351Z,42.54
2023-04-28T10:33:48.254Z,43.75
2023-04-28T10:34:48.234Z,45.77
2023-04-28T10:35:48.272Z,44.13
2023-04-28T10:36:48.220Z,43.63
2023-04-28T10:37:48.204Z,43.65
2023-04-28T10:38:48.187Z,43.65
2023-04-28T10:39:48.183Z,43.65
2023-04-28T10:40:48.242Z,43.85
2023-04-28T10:41:48.192Z,45.18
2023-04-28T10:42:48.150Z,43.77
2023-04-28T10:43:48.140Z,44.37
2023-04-28T10:44:48.132Z,43.29
2023-04-28T10:45:48.191Z,44.27
2023-04-28T10:46:48.142Z,45.08
2023-04-28T10:47:55.925Z,43.06
2023-04-28T10:48:48.083Z,43.46
2023-04-28T10:49:48.087Z,44.07
2023-04-28T10:50:49.139Z,44.66
2023-04-28T10:51:48.045Z,43.87
2023-04-28T10:52:48.036Z,44.35
2023-04-28T10:53:48.040Z,44.46
2023-04-28T10:54:48.020Z,43.93
2023-04-28T10:55:48.046Z,44.03
2023-04-28T10:56:47.994Z,43.93
2023-04-28T10:57:47.999Z,42.92
2023-04-28T10:58:47.977Z,43.43
2023-04-28T10:59:47.972Z,43.40
2023-04-28T11:00:47.970Z,43.38
2023-04-28T11:01:48.048Z,42.58
2023-04-28T11:02:48.071Z,43.28
2023-04-28T11:03:48.127Z,41.99
2023-04-28T11:04:48.132Z,43.52
2023-04-28T11:05:47.999Z,43.32
2023-04-28T11:06:47.885Z,43.55
2023-04-28T11:07:47.938Z,43.85
2023-04-28T11:08:47.862Z,43.67
2023-04-28T11:09:47.853Z,44.05
2023-04-28T11:10:47.887Z,43.57
2023-04-28T11:11:47.830Z,43.34
2023-04-28T11:12:47.879Z,43.75
2023-04-28T11:13:47.820Z,44.03
2023-04-28T11:14:47.795Z,44.74
2023-04-28T11:15:47.849Z,44.23
2023-04-28T11:16:47.821Z,42.21
2023-04-28T11:17:47.833Z,43.32
2023-04-28T11:18:47.762Z,42.82
2023-04-28T11:19:47.745Z,42.41
2023-04-28T11:20:47.753Z,43.23
2023-04-28T11:21:47.720Z,44.43
2023-04-28T11:22:47.707Z,43.34
2023-04-28T11:23:47.699Z,43.44
2023-04-28T11:24:47.686Z,45.16
2023-04-28T11:25:47.682Z,44.96
2023-04-28T11:26:47.767Z,44.98
2023-04-28T11:27:47.668Z,43.97
2023-04-28T11:28:47.671Z,44.37
2023-04-28T11:29:47.662Z,44.37
2023-04-28T11:30:47.628Z,44.07
2023-04-28T11:31:47.725Z,43.77
2023-04-28T11:32:47.615Z,44.98
2023-04-28T11:33:47.606Z,44.98
2023-04-28T11:34:47.587Z,45.29
2023-04-28T11:35:47.569Z,44.86
2023-04-28T11:36:47.566Z,44.68
2023-04-28T11:37:47.543Z,46.42
2023-04-28T11:38:47.536Z,46.40
2023-04-28T11:39:47.524Z,45.08
2023-04-28T11:40:47.512Z,45.06
2023-04-28T11:41:47.525Z,43.75
2023-04-28T11:42:47.489Z,43.65
2023-04-28T11:43:47.905Z,43.75
2023-04-28T11:44:47.470Z,43.32
2023-04-28T11:45:47.502Z,43.43
2023-04-28T11:46:47.509Z,43.85
2023-04-28T11:47:47.465Z,44.78
2023-04-28T11:48:47.434Z,45.39
2023-04-28T11:49:47.436Z,45.08
2023-04-28T11:50:47.405Z,45.89
2023-04-28T11:51:47.418Z,45.08
2023-04-28T11:52:47.408Z,45.71
2023-04-28T11:53:47.373Z,45.20
2023-04-28T11:54:47.376Z,45.20
2023-04-28T11:55:47.350Z,46.20
2023-04-28T11:56:47.352Z,44.88
2023-04-28T11:57:47.377Z,46.30
2023-04-28T11:58:47.320Z,46.17
2023-04-28T11:59:47.673Z,45.16
2023-04-28T12:00:47.295Z,45.16
2023-04-28T12:01:47.301Z,45.04
2023-04-28T12:02:47.516Z,44.05
2023-04-28T12:03:47.415Z,45.54
2023-04-28T12:04:47.254Z,45.85
2023-04-28T12:05:47.345Z,45.14
2023-04-28T12:06:47.256Z,44.13
2023-04-28T12:07:47.225Z,45.04
2023-04-28T12:08:47.240Z,44.23
2023-04-28T12:09:47.199Z,45.04
2023-04-28T12:10:47.186Z,43.32
2023-04-28T12:11:47.210Z,43.32
2023-04-28T12:12:51.966Z,43.83
2023-04-28T12:13:48.160Z,44.13
2023-04-28T12:14:47.144Z,45.42
2023-04-28T12:15:47.186Z,45.22
2023-04-28T12:16:47.169Z,44.94
2023-04-28T12:17:47.183Z,45.93
2023-04-28T12:18:47.102Z,45.45
2023-04-28T12:19:47.088Z,45.75
2023-04-28T12:20:47.086Z,45.16
2023-04-28T12:21:47.125Z,46.28
2023-04-28T12:22:47.054Z,45.45
2023-04-28T12:23:47.308Z,47.26
2023-04-28T12:24:47.045Z,47.04
2023-04-28T12:25:47.047Z,46.03
2023-04-28T12:26:47.029Z,45.83
2023-04-28T12:27:47.000Z,44.39
2023-04-28T12:28:46.992Z,43.89
2023-04-28T12:29:47.248Z,44.59
2023-04-28T12:30:46.971Z,43.69
2023-04-28T12:31:47.041Z,43.79
2023-04-28T12:32:47.027Z,44.39
2023-04-28T12:33:46.937Z,44.09
2023-04-28T12:34:46.940Z,44.62
2023-04-28T12:35:46.916Z,45.12
2023-04-28T12:36:46.952Z,45.02
2023-04-28T12:37:46.914Z,44.82
2023-04-28T12:38:46.885Z,44.92
2023-04-28T12:39:47.140Z,45.02
2023-04-28T12:40:46.865Z,45.62
2023-04-28T12:41:46.877Z,44.42
2023-04-28T12:42:46.842Z,43.20
2023-04-28T12:43:46.830Z,44.19
2023-04-28T12:44:46.823Z,44.19
2023-04-28T12:45:46.827Z,44.90
2023-04-28T12:46:46.812Z,45.10
2023-04-28T12:47:46.816Z,44.29
2023-04-28T12:48:46.779Z,44.29
2023-04-28T12:49:46.859Z,44.29
2023-04-28T12:50:46.787Z,44.19
2023-04-28T12:51:46.749Z,45.53
2023-04-28T12:52:46.737Z,44.39
2023-04-28T12:53:46.736Z,43.71